Time;durP1;ratioP1;P1;durP2;ratioP2;P2;SDS_P1;SDS_P2;PMS_P1;PMS_P2;Temp;Humidity;BMP_temperature;BMP_pressure;BME280_temperature;BME280_humidity;BME280_pressure;Samples;Min_cycle;Max_cycle;Signal;HPM_P1;HPM_P2
2022/09/23 00:02:27;;;;;;;5.10;1.75;;;;;;;;;;10411082;28;20049;-48
2022/09/23 00:07:27;;;;;;;5.72;1.88;;;;;;;;;;10409611;28;20041;-47
2022/09/23 00:12:28;;;;;;;5.93;2.10;;;;;;;;;;10411106;28;20046;-48
2022/09/23 00:17:30;;;;;;;6.18;1.70;;;;;;;;;;10410972;28;20033;-48
2022/09/23 00:22:31;;;;;;;11.27;2.20;;;;;;;;;;10410434;28;20037;-49
2022/09/23 00:27:32;;;;;;;9.35;2.50;;;;;;;;;;10410495;28;20025;-47
2022/09/23 00:32:34;;;;;;;3.25;1.55;;;;;;;;;;10411712;28;20033;-48
2022/09/23 00:37:35;;;;;;;8.38;1.40;;;;;;;;;;10410068;28;20445;-47
2022/09/23 00:42:35;;;;;;;4.88;1.77;;;;;;;;;;10410409;28;20021;-51
2022/09/23 00:47:46;;;;;;;6.90;1.70;;;;;;;;;;10409342;28;20087;-50
2022/09/23 00:52:48;;;;;;;4.93;1.55;;;;;;;;;;10407625;28;20030;-49
2022/09/23 00:57:51;;;;;;;4.57;1.60;;;;;;;;;;10409578;28;20081;-48
2022/09/23 01:02:52;;;;;;;4.65;2.10;;;;;;;;;;10397233;28;20039;-48
2022/09/23 01:07:56;;;;;;;4.78;1.80;;;;;;;;;;10403392;28;20030;-49
2022/09/23 01:13:18;;;;;;;6.63;1.95;;;;;;;;;;10398252;28;20456;-48
2022/09/23 01:18:27;;;;;;;3.22;1.48;;;;;;;;;;10402624;28;20033;-49
2022/09/23 01:23:37;;;;;;;3.42;1.33;;;;;;;;;;10408383;28;20025;-48
2022/09/23 01:29:05;;;;;;;2.60;1.60;;;;;;;;;;10397790;28;20025;-49
2022/09/23 01:34:54;;;;;;;4.22;1.50;;;;;;;;;;10400211;28;20041;-49
2022/09/23 01:40:14;;;;;;;9.43;1.50;;;;;;;;;;10376796;28;20069;-59
2022/09/23 01:45:42;;;;;;;3.55;1.30;;;;;;;;;;10405194;28;20032;-54
2022/09/23 01:50:56;;;;;;;;;;;;;;;;;;10391760;28;20504;-62
2022/09/23 01:56:04;;;;;;;5.35;1.48;;;;;;;;;;10396497;28;19959;-58
2022/09/23 02:01:07;;;;;;;4.43;1.27;;;;;;;;;;10394458;28;20026;-61
2022/09/23 02:06:23;;;;;;;3.95;1.60;;;;;;;;;;10404938;28;20025;-61
2022/09/23 02:11:23;;;;;;;2.88;1.10;;;;;;;;;;10389487;28;20034;-62
2022/09/23 02:16:35;;;;;;;4.53;1.50;;;;;;;;;;10393912;28;20207;-56
2022/09/23 02:21:42;;;;;;;1.60;1.30;;;;;;;;;;10403643;28;20112;-59
2022/09/23 02:27:21;;;;;;;3.10;1.30;;;;;;;;;;10390035;28;20087;-61
2022/09/23 02:32:52;;;;;;;5.00;1.33;;;;;;;;;;10381304;28;20034;-60
2022/09/23 02:38:20;;;;;;;5.55;1.60;;;;;;;;;;10387231;28;20461;-61
2022/09/23 02:43:34;;;;;;;2.95;1.88;;;;;;;;;;10388836;28;20025;-60
2022/09/23 02:49:03;;;;;;;2.92;1.45;;;;;;;;;;10392802;28;20095;-57
2022/09/23 02:54:09;;;;;;;3.35;1.40;;;;;;;;;;10385133;28;20030;-59
2022/09/23 02:59:11;;;;;;;2.40;1.20;;;;;;;;;;10387386;28;20492;-59
2022/09/23 03:04:46;;;;;;;2.42;1.58;;;;;;;;;;10391287;28;20030;-61
2022/09/23 03:10:26;;;;;;;1.80;1.15;;;;;;;;;;10382608;28;20071;-55
2022/09/23 03:15:46;;;;;;;8.45;1.52;;;;;;;;;;10401244;28;20041;-59
2022/09/23 03:21:07;;;;;;;3.85;1.30;;;;;;;;;;10412937;28;20519;-61
2022/09/23 03:26:34;;;;;;;14.77;1.85;;;;;;;;;;10412971;28;20465;-58
2022/09/23 03:31:41;;;;;;;3.25;1.20;;;;;;;;;;10412511;28;20068;-61
2022/09/23 03:36:54;;;;;;;3.95;1.30;;;;;;;;;;10411008;28;20036;-60
2022/09/23 03:42:00;;;;;;;6.22;1.50;;;;;;;;;;10389936;28;20026;-59
2022/09/23 03:47:01;;;;;;;2.53;1.45;;;;;;;;;;10393907;28;20053;-60
2022/09/23 03:52:02;;;;;;;2.78;1.00;;;;;;;;;;10410440;28;20495;-58
2022/09/23 03:57:03;;;;;;;5.28;1.35;;;;;;;;;;10388778;28;20029;-61
2022/09/23 04:02:06;;;;;;;1.80;1.30;;;;;;;;;;10399241;28;20037;-58
2022/09/23 04:07:07;;;;;;;7.22;1.35;;;;;;;;;;10393315;28;20042;-59
2022/09/23 04:12:13;;;;;;;3.25;1.23;;;;;;;;;;10394888;28;20038;-61
2022/09/23 04:17:14;;;;;;;3.08;1.33;;;;;;;;;;10410307;28;20207;-53
2022/09/23 04:22:15;;;;;;;3.50;1.38;;;;;;;;;;10411876;28;20059;-63
2022/09/23 04:27:15;;;;;;;3.50;1.15;;;;;;;;;;10411244;28;20037;-62
2022/09/23 04:32:16;;;;;;;8.50;1.30;;;;;;;;;;10411463;28;20018;-62
2022/09/23 04:37:17;;;;;;;2.83;1.10;;;;;;;;;;10409997;28;20037;-47
2022/09/23 04:42:17;;;;;;;1.40;1.00;;;;;;;;;;10398999;28;20025;-49
2022/09/23 04:47:18;;;;;;;4.25;1.25;;;;;;;;;;10400047;28;20033;-47
2022/09/23 04:52:18;;;;;;;3.85;1.38;;;;;;;;;;10404364;28;20026;-48
2022/09/23 04:57:19;;;;;;;9.70;1.48;;;;;;;;;;10388405;28;20403;-49
2022/09/23 05:02:20;;;;;;;1.00;0.90;;;;;;;;;;10409736;28;20168;-48
2022/09/23 05:07:21;;;;;;;4.70;1.38;;;;;;;;;;10396097;28;20025;-47
2022/09/23 05:12:21;;;;;;;1.25;0.95;;;;;;;;;;10407660;28;20260;-56
2022/09/23 05:17:22;;;;;;;4.13;1.65;;;;;;;;;;10402651;28;20098;-48
2022/09/23 05:22:25;;;;;;;2.88;1.20;;;;;;;;;;10401286;28;20033;-49
2022/09/23 05:27:26;;;;;;;1.20;1.05;;;;;;;;;;10395484;28;20450;-54
2022/09/23 05:32:26;;;;;;;1.75;1.15;;;;;;;;;;10404696;28;20022;-48
2022/09/23 05:37:27;;;;;;;6.53;1.10;;;;;;;;;;10392584;28;20041;-50
2022/09/23 05:42:28;;;;;;;12.48;1.70;;;;;;;;;;10394834;28;20036;-52
2022/09/23 05:47:28;;;;;;;11.75;1.50;;;;;;;;;;10403358;28;20033;-49
2022/09/23 05:52:30;;;;;;;21.08;1.92;;;;;;;;;;10405125;28;20046;-52
2022/09/23 05:57:31;;;;;;;8.57;1.73;;;;;;;;;;10402860;28;20029;-53
2022/09/23 06:02:32;;;;;;;17.70;2.00;;;;;;;;;;10402007;28;20316;-49
2022/09/23 06:07:32;;;;;;;10.75;2.58;;;;;;;;;;10391134;28;20202;-53
2022/09/23 06:12:34;;;;;;;17.90;2.88;;;;;;;;;;10389785;28;20046;-53
2022/09/23 06:17:34;;;;;;;19.15;3.28;;;;;;;;;;10395457;28;20043;-53
2022/09/23 06:22:35;;;;;;;15.77;2.67;;;;;;;;;;10392329;28;20492;-54
2022/09/23 06:27:35;;;;;;;13.15;2.35;;;;;;;;;;10394067;28;20041;-52
2022/09/23 06:32:36;;;;;;;14.30;2.38;;;;;;;;;;10373375;28;20404;-51
2022/09/23 06:37:37;;;;;;;5.05;1.80;;;;;;;;;;10405230;28;20075;-52
2022/09/23 06:42:37;;;;;;;10.38;2.00;;;;;;;;;;10392890;28;20029;-52
2022/09/23 06:47:38;;;;;;;3.50;2.25;;;;;;;;;;10408496;28;20084;-53
2022/09/23 06:52:39;;;;;;;5.80;1.88;;;;;;;;;;10407246;28;20022;-51
2022/09/23 06:57:40;;;;;;;8.45;2.33;;;;;;;;;;10405669;28;20040;-54
2022/09/23 07:02:41;;;;;;;6.30;1.73;;;;;;;;;;10405790;28;20037;-57
2022/09/23 07:07:42;;;;;;;2.92;1.88;;;;;;;;;;10413880;28;20036;-53
2022/09/23 07:12:43;;;;;;;8.23;2.03;;;;;;;;;;10404369;28;20447;-51
2022/09/23 07:17:43;;;;;;;6.38;2.00;;;;;;;;;;10412559;28;20072;-52
2022/09/23 07:22:51;;;;;;;10.18;2.10;;;;;;;;;;10411476;28;20105;-52
2022/09/23 07:27:51;;;;;;;4.70;1.70;;;;;;;;;;10402581;28;20116;-52
2022/09/23 07:32:52;;;;;;;5.00;1.55;;;;;;;;;;10413073;28;20021;-52
2022/09/23 07:37:53;;;;;;;9.15;2.17;;;;;;;;;;10392892;28;20124;-56
2022/09/23 07:42:55;;;;;;;6.55;1.70;;;;;;;;;;10399044;28;20123;-50
2022/09/23 07:47:56;;;;;;;7.28;1.88;;;;;;;;;;10428084;28;20021;-57
2022/09/23 07:52:57;;;;;;;5.03;1.77;;;;;;;;;;10412434;28;20511;-50
2022/09/23 07:57:58;;;;;;;4.13;1.40;;;;;;;;;;10411448;28;20036;-53
2022/09/23 08:02:58;;;;;;;5.88;1.90;;;;;;;;;;10412791;28;20503;-52
2022/09/23 08:07:59;;;;;;;3.25;1.52;;;;;;;;;;10412191;28;20481;-51
2022/09/23 08:13:02;;;;;;;4.63;1.50;;;;;;;;;;10409963;28;20472;-62
2022/09/23 08:18:03;;;;;;;4.10;1.75;;;;;;;;;;10412046;28;20060;-54
2022/09/23 08:23:03;;;;;;;3.20;1.52;;;;;;;;;;10403268;28;20045;-51
2022/09/23 08:28:04;;;;;;;3.35;1.40;;;;;;;;;;10405850;28;20066;-62
2022/09/23 08:33:04;;;;;;;3.08;1.45;;;;;;;;;;10409338;28;20021;-52
2022/09/23 08:38:06;;;;;;;3.58;1.65;;;;;;;;;;10404688;28;20030;-51
2022/09/23 08:43:16;;;;;;;10.35;2.58;;;;;;;;;;10400679;28;20101;-62
2022/09/23 08:48:33;;;;;;;5.80;2.05;;;;;;;;;;10408127;28;21505;-62
2022/09/23 08:53:36;;;;;;;5.03;1.83;;;;;;;;;;10407351;28;20104;-50
2022/09/23 08:58:52;;;;;;;17.60;2.42;;;;;;;;;;10408281;28;20029;-62
2022/09/23 09:03:56;;;;;;;9.13;1.80;;;;;;;;;;10406833;28;20029;-53
2022/09/23 09:09:01;;;;;;;9.70;2.08;;;;;;;;;;10408526;28;20108;-52
2022/09/23 09:14:17;;;;;;;9.90;2.25;;;;;;;;;;10412101;28;20053;-50
2022/09/23 09:19:31;;;;;;;4.18;1.80;;;;;;;;;;10397308;28;20030;-49
2022/09/23 09:24:34;;;;;;;4.85;2.00;;;;;;;;;;10398069;28;20025;-52
2022/09/23 09:29:41;;;;;;;7.05;1.90;;;;;;;;;;10407878;28;20021;-53
2022/09/23 09:34:54;;;;;;;8.07;2.10;;;;;;;;;;10395846;28;20091;-58
2022/09/23 09:39:55;;;;;;;3.58;1.80;;;;;;;;;;10394354;28;20104;-49
2022/09/23 09:45:00;;;;;;;7.40;1.95;;;;;;;;;;10403582;28;20022;-52
2022/09/23 09:50:12;;;;;;;7.43;1.70;;;;;;;;;;10401539;28;20385;-51
2022/09/23 09:55:13;;;;;;;5.50;1.70;;;;;;;;;;10395054;28;20040;-52
2022/09/23 10:00:25;;;;;;;5.53;1.50;;;;;;;;;;10376178;28;20511;-52
2022/09/23 10:05:33;;;;;;;6.00;1.73;;;;;;;;;;10396352;28;20021;-57
2022/09/23 10:10:34;;;;;;;2.95;1.90;;;;;;;;;;10396649;28;20072;-53
2022/09/23 10:15:43;;;;;;;6.53;1.95;;;;;;;;;;10397916;28;20046;-50
2022/09/23 10:20:45;;;;;;;3.35;1.70;;;;;;;;;;10418936;28;20037;-52
2022/09/23 10:26:00;;;;;;;6.68;1.50;;;;;;;;;;10390837;28;20037;-53
2022/09/23 10:31:13;;;;;;;7.40;1.60;;;;;;;;;;10404505;28;20029;-53
2022/09/23 10:36:16;;;;;;;4.15;1.30;;;;;;;;;;10403052;28;20451;-52
2022/09/23 10:47:36;;;;;;;3.38;1.48;;;;;;;;;;10387189;28;20029;-51
2022/09/23 10:53:25;;;;;;;5.43;1.63;;;;;;;;;;10400503;28;20128;-56
2022/09/23 10:59:02;;;;;;;3.80;1.58;;;;;;;;;;10405641;28;20399;-52
2022/09/23 11:04:27;;;;;;;2.22;1.58;;;;;;;;;;10387654;28;20045;-60
2022/09/23 11:10:30;;;;;;;2.50;1.70;;;;;;;;;;10400778;28;20025;-53
2022/09/23 11:15:44;;;;;;;4.70;1.30;;;;;;;;;;10351554;28;20562;-53
2022/09/23 11:21:11;;;;;;;2.53;1.50;;;;;;;;;;10399097;28;20037;-51
2022/09/23 11:26:51;;;;;;;2.43;1.40;;;;;;;;;;10395856;28;20101;-49
2022/09/23 11:32:13;;;;;;;2.53;1.63;;;;;;;;;;10385078;28;20037;-50
2022/09/23 11:37:26;;;;;;;1.40;1.30;;;;;;;;;;10411460;28;20029;-52
2022/09/23 11:42:34;;;;;;;3.47;1.83;;;;;;;;;;10410429;28;20022;-53
2022/09/23 11:47:44;;;;;;;1.63;1.20;;;;;;;;;;10410044;28;20030;-59
2022/09/23 11:52:57;;;;;;;6.43;1.38;;;;;;;;;;10405482;28;20488;-61
2022/09/23 11:58:22;;;;;;;2.45;1.60;;;;;;;;;;10397969;28;20033;-57
2022/09/23 12:04:21;;;;;;;2.33;1.60;;;;;;;;;;10411807;28;20252;-61
2022/09/23 12:09:39;;;;;;;5.72;1.42;;;;;;;;;;10243431;29;20122;-58
2022/09/23 12:14:58;;;;;;;2.55;1.48;;;;;;;;;;10244054;29;20069;-62
2022/09/23 12:20:42;;;;;;;2.50;1.25;;;;;;;;;;10243372;28;20049;-60
2022/09/23 12:25:51;;;;;;;1.73;1.13;;;;;;;;;;10211799;29;20138;-57
2022/09/23 12:30:57;;;;;;;9.40;1.63;;;;;;;;;;10215375;29;20043;-57
2022/09/23 12:36:04;;;;;;;2.55;1.73;;;;;;;;;;10218069;29;20039;-62
2022/09/23 12:41:32;;;;;;;1.95;1.70;;;;;;;;;;10302362;28;20456;-62
2022/09/23 12:46:33;;;;;;;2.08;1.42;;;;;;;;;;10396501;28;20026;-58
2022/09/23 12:51:35;;;;;;;2.03;1.50;;;;;;;;;;10409826;28;20037;-58
2022/09/23 12:56:35;;;;;;;6.07;1.52;;;;;;;;;;10396402;28;20033;-56
2022/09/23 13:01:37;;;;;;;5.55;1.88;;;;;;;;;;10399351;28;20472;-56
2022/09/23 13:07:04;;;;;;;8.10;1.63;;;;;;;;;;10405302;28;20048;-56
2022/09/23 13:12:16;;;;;;;3.85;1.80;;;;;;;;;;10396678;28;20506;-55
2022/09/23 13:17:40;;;;;;;3.67;1.85;;;;;;;;;;10407927;28;20496;-56
2022/09/23 13:23:04;;;;;;;7.88;1.85;;;;;;;;;;10389253;28;20385;-59
2022/09/23 13:28:22;;;;;;;10.38;1.80;;;;;;;;;;10418959;28;20041;-49
2022/09/23 13:33:55;;;;;;;7.25;1.80;;;;;;;;;;10406280;28;20687;-55
2022/09/23 13:39:25;;;;;;;8.88;1.65;;;;;;;;;;10406355;28;20021;-55
2022/09/23 13:44:27;;;;;;;10.30;2.03;;;;;;;;;;10406157;28;20037;-59
2022/09/23 13:49:35;;;;;;;4.35;1.85;;;;;;;;;;10408291;28;20029;-58
2022/09/23 13:54:48;;;;;;;3.28;1.60;;;;;;;;;;10408320;28;20029;-57
2022/09/23 13:59:49;;;;;;;6.05;1.95;;;;;;;;;;10407784;28;20030;-57
2022/09/23 14:04:50;;;;;;;5.40;1.52;;;;;;;;;;10407726;28;20381;-57
2022/09/23 14:09:54;;;;;;;7.40;1.95;;;;;;;;;;10405889;28;20035;-59
2022/09/23 14:14:56;;;;;;;3.10;1.75;;;;;;;;;;10405859;28;20492;-59
2022/09/23 14:19:56;;;;;;;6.85;1.45;;;;;;;;;;10404211;28;20469;-58
2022/09/23 14:24:58;;;;;;;7.40;1.92;;;;;;;;;;10404217;28;20030;-53
2022/09/23 14:30:01;;;;;;;4.75;1.80;;;;;;;;;;10393863;28;20445;-58
2022/09/23 14:35:02;;;;;;;9.43;2.22;;;;;;;;;;10386564;28;20057;-59
2022/09/23 14:40:12;;;;;;;7.85;2.17;;;;;;;;;;10389560;28;20030;-58
2022/09/23 14:45:21;;;;;;;3.55;1.92;;;;;;;;;;10386996;28;20265;-54
2022/09/23 14:50:38;;;;;;;;;;;;;;;;;;10400113;28;20072;-47
2022/09/23 14:55:39;;;;;;;5.25;1.80;;;;;;;;;;10397021;28;19963;-47
2022/09/23 15:01:02;;;;;;;7.75;1.60;;;;;;;;;;10420991;28;20539;-48
2022/09/23 15:06:08;;;;;;;4.57;1.75;;;;;;;;;;10403571;28;20357;-48
2022/09/23 15:11:08;;;;;;;7.22;1.77;;;;;;;;;;10409506;28;20483;-48
2022/09/23 15:16:13;;;;;;;2.47;1.45;;;;;;;;;;10406982;28;20056;-47
2022/09/23 15:21:18;;;;;;;4.93;1.65;;;;;;;;;;10399031;28;20022;-47
2022/09/23 15:26:22;;;;;;;3.15;1.70;;;;;;;;;;10412373;28;20028;-46
2022/09/23 15:31:26;;;;;;;2.17;1.40;;;;;;;;;;10401063;28;20029;-51
2022/09/23 15:36:27;;;;;;;5.85;1.58;;;;;;;;;;10413520;28;20033;-47
2022/09/23 15:41:28;;;;;;;3.95;1.45;;;;;;;;;;10410129;28;20462;-57
2022/09/23 15:46:32;;;;;;;3.20;1.83;;;;;;;;;;10412649;28;20026;-55
2022/09/23 15:51:37;;;;;;;4.55;1.60;;;;;;;;;;10410668;28;20026;-48
2022/09/23 15:56:37;;;;;;;5.13;1.92;;;;;;;;;;10399044;28;20057;-50
2022/09/23 16:01:40;;;;;;;5.13;1.70;;;;;;;;;;10410238;28;20033;-57
2022/09/23 16:06:42;;;;;;;1.58;1.40;;;;;;;;;;10408458;28;20030;-57
2022/09/23 16:11:45;;;;;;;2.70;1.52;;;;;;;;;;10411889;28;20036;-47
2022/09/23 16:16:46;;;;;;;2.42;1.55;;;;;;;;;;10409163;28;20093;-47
2022/09/23 16:21:47;;;;;;;5.93;1.60;;;;;;;;;;10411832;28;20465;-48
2022/09/23 16:26:48;;;;;;;5.70;1.63;;;;;;;;;;10400821;28;20025;-48
2022/09/23 16:31:48;;;;;;;3.85;1.30;;;;;;;;;;10406481;28;20029;-46
2022/09/23 16:36:49;;;;;;;3.65;1.38;;;;;;;;;;10411283;28;20469;-47
2022/09/23 16:41:50;;;;;;;4.07;1.55;;;;;;;;;;10408335;28;20067;-47
2022/09/23 16:46:51;;;;;;;5.47;1.70;;;;;;;;;;10409094;28;20283;-47
2022/09/23 16:51:52;;;;;;;2.45;1.50;;;;;;;;;;10404446;28;20256;-47
2022/09/23 16:56:53;;;;;;;2.17;1.33;;;;;;;;;;10401704;28;20038;-47
2022/09/23 17:07:13;;;;;;;1.45;1.30;;;;;;;;;;10409413;28;20033;-47
2022/09/23 17:12:27;;;;;;;1.95;1.45;;;;;;;;;;10405094;28;20029;-47
2022/09/23 17:17:28;;;;;;;2.17;1.42;;;;;;;;;;10397379;28;20061;-47
2022/09/23 17:22:29;;;;;;;2.90;1.80;;;;;;;;;;10389334;28;20055;-48
2022/09/23 17:27:30;;;;;;;8.75;2.00;;;;;;;;;;10387707;28;20025;-47
2022/09/23 17:32:31;;;;;;;7.47;1.70;;;;;;;;;;10400710;28;20116;-48
2022/09/23 17:37:32;;;;;;;2.83;1.60;;;;;;;;;;10395414;28;20033;-48
2022/09/23 17:42:33;;;;;;;2.15;1.52;;;;;;;;;;10401938;28;20034;-52
2022/09/23 17:47:34;;;;;;;2.25;1.80;;;;;;;;;;10392275;28;20048;-49
2022/09/23 17:52:35;;;;;;;1.92;1.63;;;;;;;;;;10406679;28;20057;-47
2022/09/23 17:57:35;;;;;;;10.98;1.80;;;;;;;;;;10392433;28;20280;-49
2022/09/23 18:02:36;;;;;;;3.05;1.58;;;;;;;;;;10402509;28;20030;-51
2022/09/23 18:07:36;;;;;;;8.25;1.63;;;;;;;;;;10405435;28;20036;-54
2022/09/23 18:12:37;;;;;;;11.50;2.53;;;;;;;;;;10403183;28;20037;-51
2022/09/23 18:17:37;;;;;;;3.88;1.85;;;;;;;;;;10389204;28;20050;-48
2022/09/23 18:22:38;;;;;;;3.72;2.25;;;;;;;;;;10394995;28;20037;-50
2022/09/23 18:27:39;;;;;;;10.65;2.80;;;;;;;;;;10406863;28;20033;-48
2022/09/23 18:32:39;;;;;;;5.25;2.40;;;;;;;;;;10400290;28;20036;-49
2022/09/23 18:37:40;;;;;;;6.78;2.08;;;;;;;;;;10405879;28;20500;-50
2022/09/23 18:42:40;;;;;;;8.23;2.17;;;;;;;;;;10419384;28;20458;-48
2022/09/23 18:53:00;;;;;;;7.55;2.20;;;;;;;;;;10418710;28;20041;-58
2022/09/23 18:58:01;;;;;;;7.22;2.40;;;;;;;;;;10411690;28;20041;-49
2022/09/23 19:03:02;;;;;;;12.85;2.35;;;;;;;;;;10414120;28;20610;-61
2022/09/23 19:08:02;;;;;;;4.43;2.00;;;;;;;;;;10409221;28;20075;-61
2022/09/23 19:13:03;;;;;;;17.98;3.25;;;;;;;;;;10419173;28;20069;-60
2022/09/23 19:18:04;;;;;;;5.13;2.45;;;;;;;;;;10406718;28;20032;-61
2022/09/23 19:23:04;;;;;;;9.77;2.33;;;;;;;;;;10397404;28;20037;-61
2022/09/23 19:28:07;;;;;;;5.57;2.42;;;;;;;;;;10412197;28;20022;-59
2022/09/23 19:33:08;;;;;;;4.43;2.22;;;;;;;;;;10408810;28;20248;-61
2022/09/23 19:38:09;;;;;;;7.85;2.60;;;;;;;;;;10417474;28;20507;-60
2022/09/23 19:43:11;;;;;;;4.95;1.90;;;;;;;;;;10401719;28;20032;-61
2022/09/23 19:48:11;;;;;;;8.77;2.60;;;;;;;;;;10416350;28;20331;-62
2022/09/23 19:53:12;;;;;;;5.45;2.75;;;;;;;;;;10411815;28;20249;-60
2022/09/23 19:58:13;;;;;;;4.30;2.40;;;;;;;;;;10397543;28;20068;-60
2022/09/23 20:03:14;;;;;;;5.57;2.50;;;;;;;;;;10400871;28;20115;-60
2022/09/23 20:08:15;;;;;;;6.97;2.25;;;;;;;;;;10400399;28;20203;-62
2022/09/23 20:13:16;;;;;;;8.50;2.50;;;;;;;;;;10388174;28;20176;-60
2022/09/23 20:18:17;;;;;;;5.97;2.67;;;;;;;;;;10390229;28;20126;-52
2022/09/23 20:23:17;;;;;;;5.85;2.53;;;;;;;;;;10401541;28;20497;-50
2022/09/23 20:28:20;;;;;;;5.35;2.40;;;;;;;;;;10396784;28;20036;-51
2022/09/23 20:33:21;;;;;;;8.25;2.70;;;;;;;;;;10398813;28;20036;-51
2022/09/23 20:38:21;;;;;;;16.33;2.88;;;;;;;;;;10393228;28;20042;-49
2022/09/23 20:43:23;;;;;;;18.83;2.83;;;;;;;;;;10405305;28;20029;-52
2022/09/23 20:48:24;;;;;;;8.75;3.03;;;;;;;;;;10402851;28;20564;-57
2022/09/23 20:53:25;;;;;;;16.77;2.97;;;;;;;;;;10406002;28;20030;-61
2022/09/23 20:58:29;;;;;;;11.15;2.90;;;;;;;;;;10395998;28;20041;-54
2022/09/23 21:03:31;;;;;;;9.00;2.83;;;;;;;;;;10405127;28;20087;-50
2022/09/23 21:08:33;;;;;;;8.05;2.45;;;;;;;;;;10400753;28;20439;-63
2022/09/23 21:13:34;;;;;;;26.25;2.60;;;;;;;;;;10401256;28;20052;-63
2022/09/23 21:18:36;;;;;;;3.72;2.20;;;;;;;;;;10384990;28;20042;-53
2022/09/23 21:23:37;;;;;;;8.30;2.28;;;;;;;;;;10382034;28;20029;-64
2022/09/23 21:28:41;;;;;;;11.43;2.72;;;;;;;;;;10391867;28;20040;-63
2022/09/23 21:33:41;;;;;;;3.08;2.10;;;;;;;;;;10395233;28;20029;-63
2022/09/23 21:38:52;;;;;;;9.05;2.85;;;;;;;;;;10388041;28;20421;-61
2022/09/23 21:43:55;;;;;;;4.28;2.10;;;;;;;;;;10393276;28;20025;-63
2022/09/23 21:48:57;;;;;;;8.73;2.72;;;;;;;;;;10403783;28;20109;-64
2022/09/23 21:53:58;;;;;;;4.15;2.28;;;;;;;;;;10396535;28;20100;-66
2022/09/23 21:58:58;;;;;;;5.82;2.70;;;;;;;;;;10397888;28;20036;-66
2022/09/23 22:04:06;;;;;;;12.57;2.17;;;;;;;;;;10397847;28;20400;-65
2022/09/23 22:09:13;;;;;;;4.37;2.40;;;;;;;;;;10404346;28;20029;-65
2022/09/23 22:14:15;;;;;;;11.05;2.50;;;;;;;;;;10404638;28;20045;-55
2022/09/23 22:19:16;;;;;;;6.10;2.65;;;;;;;;;;10393908;28;20039;-61
2022/09/23 22:24:16;;;;;;;4.82;2.45;;;;;;;;;;10399226;28;20056;-65
2022/09/23 22:34:37;;;;;;;5.57;2.58;;;;;;;;;;10393359;28;20029;-64
2022/09/23 22:39:38;;;;;;;5.22;2.25;;;;;;;;;;10402225;28;20040;-64
2022/09/23 22:44:38;;;;;;;4.00;2.22;;;;;;;;;;10396628;28;20120;-65
2022/09/23 22:49:40;;;;;;;3.95;2.22;;;;;;;;;;10389140;28;20500;-65
2022/09/23 22:54:41;;;;;;;5.32;2.60;;;;;;;;;;10397967;28;20484;-65
2022/09/23 22:59:46;;;;;;;5.85;2.17;;;;;;;;;;10398806;28;20033;-65
2022/09/23 23:04:48;;;;;;;3.22;1.90;;;;;;;;;;10398919;28;20119;-65
2022/09/23 23:09:49;;;;;;;8.00;2.20;;;;;;;;;;10403441;28;20032;-59
2022/09/23 23:14:50;;;;;;;5.28;2.10;;;;;;;;;;10406079;28;20037;-53
2022/09/23 23:19:50;;;;;;;9.85;2.20;;;;;;;;;;10401785;28;20421;-56
2022/09/23 23:24:53;;;;;;;3.25;2.20;;;;;;;;;;10381545;28;20021;-54
2022/09/23 23:29:54;;;;;;;4.75;2.22;;;;;;;;;;10392063;28;20064;-55
2022/09/23 23:34:54;;;;;;;6.85;2.10;;;;;;;;;;10409084;28;20029;-56
2022/09/23 23:39:55;;;;;;;5.28;2.10;;;;;;;;;;10395291;28;20030;-56
2022/09/23 23:44:56;;;;;;;5.60;2.05;;;;;;;;;;10411300;28;20038;-56
2022/09/23 23:49:56;;;;;;;4.35;2.45;;;;;;;;;;10412514;28;20384;-54
2022/09/23 23:54:57;;;;;;;3.65;2.28;;;;;;;;;;10413431;28;20025;-55
2022/09/23 23:59:57;;;;;;;2.25;1.98;;;;;;;;;;10406657;28;20539;-51
